createdAt,value
2022-08-18T00:01:14.505Z,94843.84
2022-08-18T00:03:55.778Z,94842.78
2022-08-18T00:06:28.659Z,94838.09
2022-08-18T00:08:56.997Z,94840.22
2022-08-18T00:11:24.077Z,94836.50
2022-08-18T00:13:51.484Z,94837.63
2022-08-18T00:16:18.648Z,94843.41
2022-08-18T00:18:45.534Z,94820.84
2022-08-18T00:21:12.462Z,94840.28
2022-08-18T00:23:39.319Z,94831.88
2022-08-18T00:26:06.270Z,94824.47
2022-08-18T00:28:33.097Z,94825.00
2022-08-18T00:31:00.180Z,94856.06
2022-08-18T00:33:27.411Z,94843.00
2022-08-18T00:35:54.431Z,94847.44
2022-08-18T00:38:23.604Z,94847.22
2022-08-18T00:40:53.878Z,94845.16
2022-08-18T00:43:32.187Z,94846.72
2022-08-18T00:45:59.406Z,94847.81
2022-08-18T00:48:26.539Z,94831.00
2022-08-18T00:50:58.160Z,94845.16
2022-08-18T00:53:49.682Z,94843.88
2022-08-18T00:56:23.444Z,94855.72
2022-08-18T00:58:57.804Z,94849.41
2022-08-18T01:01:30.231Z,94846.78
2022-08-18T01:04:05.551Z,94857.81
2022-08-18T01:06:39.401Z,94856.78
2022-08-18T01:09:08.980Z,94854.16
2022-08-18T01:11:38.373Z,94857.31
2022-08-18T01:14:08.894Z,94841.81
2022-08-18T01:16:57.307Z,94840.00
2022-08-18T01:19:45.424Z,94848.94
2022-08-18T01:22:24.533Z,94854.69
2022-08-18T01:25:13.424Z,94862.06
2022-08-18T01:27:42.005Z,94840.03
2022-08-18T01:30:14.284Z,94869.97
2022-08-18T01:32:42.173Z,94845.00
2022-08-18T01:35:11.983Z,94861.53
2022-08-18T01:37:39.067Z,94855.75
2022-08-18T01:41:24.886Z,94847.31
2022-08-18T01:42:56.563Z,94845.50
2022-08-18T01:45:23.748Z,94828.22
2022-08-18T01:47:50.897Z,94845.56
2022-08-18T01:50:18.199Z,94843.22
2022-08-18T01:52:45.297Z,94837.97
2022-08-18T01:55:14.510Z,94832.19
2022-08-18T01:57:43.238Z,94836.41
2022-08-18T02:00:12.650Z,94837.19
2022-08-18T02:02:40.400Z,94852.69
2022-08-18T02:05:12.463Z,94824.63
2022-08-18T02:07:40.187Z,94851.66
2022-08-18T02:10:16.662Z,94855.31
2022-08-18T02:12:43.988Z,94845.38
2022-08-18T02:15:11.851Z,94833.25
2022-08-18T02:17:43.760Z,94842.47
2022-08-18T02:20:16.407Z,94848.50
2022-08-18T02:22:44.848Z,94841.16
2022-08-18T02:25:13.352Z,94844.31
2022-08-18T02:27:40.455Z,94826.94
2022-08-18T02:30:10.386Z,94845.84
2022-08-18T02:32:37.992Z,94849.00
2022-08-18T02:35:11.539Z,94855.84
2022-08-18T02:37:42.200Z,94849.81
2022-08-18T02:40:14.804Z,94847.97
2022-08-18T02:42:42.942Z,94809.09
2022-08-18T02:45:10.439Z,94842.47
2022-08-18T02:47:37.241Z,94835.88
2022-08-18T02:50:04.657Z,94842.44
2022-08-18T02:52:34.246Z,94855.28
2022-08-18T02:55:02.329Z,94846.88
2022-08-18T02:57:30.167Z,94853.19
2022-08-18T02:59:57.397Z,94837.44
2022-08-18T03:02:27.283Z,94849.78
2022-08-18T03:04:54.165Z,94849.78
2022-08-18T03:07:21.080Z,94850.81
2022-08-18T03:09:48.088Z,94843.72
2022-08-18T03:12:14.817Z,94849.00
2022-08-18T03:14:41.678Z,94837.44
2022-08-18T03:17:09.659Z,94859.50
2022-08-18T03:19:36.986Z,94857.38
2022-08-18T03:22:08.358Z,94862.13
2022-08-18T03:24:53.150Z,94844.25
2022-08-18T03:27:20.018Z,94870.00
2022-08-18T03:29:47.288Z,94852.66
2022-08-18T03:32:14.161Z,94858.47
2022-08-18T03:34:42.952Z,94861.59
2022-08-18T03:37:10.531Z,94853.69
2022-08-18T03:39:38.924Z,94865.53
2022-08-18T03:42:05.845Z,94873.66
2022-08-18T03:44:37.228Z,94878.38
2022-08-18T03:47:08.579Z,94868.91
2022-08-18T03:49:36.337Z,94872.34
2022-08-18T03:52:06.044Z,94863.66
2022-08-18T03:54:33.648Z,94866.31
2022-08-18T03:57:01.063Z,94863.94
2022-08-18T03:59:30.849Z,94851.59
2022-08-18T04:01:57.699Z,94867.63
2022-08-18T04:04:29.633Z,94881.53
2022-08-18T04:07:00.807Z,94871.56
2022-08-18T04:09:30.854Z,94875.25
2022-08-18T04:11:59.463Z,94883.16
2022-08-18T04:14:32.840Z,94887.38
2022-08-18T04:17:00.197Z,94882.13
2022-08-18T04:19:28.161Z,94873.72
2022-08-18T04:21:57.565Z,94863.47
2022-08-18T04:24:28.203Z,94866.34
2022-08-18T04:27:01.185Z,94877.34
2022-08-18T04:29:28.772Z,94863.16
2022-08-18T04:31:56.300Z,94881.00
2022-08-18T04:34:24.137Z,94875.47
2022-08-18T04:36:54.227Z,94896.75
2022-08-18T04:39:22.614Z,94895.97
2022-08-18T04:41:50.778Z,94884.69
2022-08-18T04:44:18.652Z,94895.16
2022-08-18T04:46:49.488Z,94894.41
2022-08-18T04:49:18.147Z,94914.63
2022-08-18T04:52:26.795Z,94912.50
2022-08-18T04:54:54.318Z,94887.25
2022-08-18T04:57:23.122Z,94906.13
2022-08-18T04:59:52.506Z,94912.94
2022-08-18T05:02:20.991Z,94910.22
2022-08-18T05:04:48.351Z,94910.16
2022-08-18T05:07:19.051Z,94899.63
2022-08-18T05:09:46.472Z,94912.66
2022-08-18T05:12:15.083Z,94909.94
2022-08-18T05:14:47.285Z,94918.53
2022-08-18T05:17:16.153Z,94923.41
2022-08-18T05:19:44.691Z,94922.19
2022-08-18T05:22:18.244Z,94925.25
2022-08-18T05:24:45.995Z,94914.66
2022-08-18T05:27:13.591Z,94933.34
2022-08-18T05:29:41.982Z,94925.38
2022-08-18T05:32:46.382Z,94932.53
2022-08-18T05:35:13.023Z,94927.38
2022-08-18T05:37:48.437Z,94937.00
2022-08-18T05:40:15.813Z,94930.56
2022-08-18T05:42:43.584Z,94909.81
2022-08-18T05:45:15.535Z,94932.81
2022-08-18T05:47:42.504Z,94935.97
2022-08-18T05:50:13.357Z,94924.06
2022-08-18T05:52:43.397Z,94921.78
2022-08-18T05:55:34.321Z,94939.28
2022-08-18T05:58:08.252Z,94933.88
2022-08-18T06:00:36.735Z,94932.34
2022-08-18T06:03:20.100Z,94936.41
2022-08-18T06:05:57.571Z,94937.31
2022-08-18T06:08:40.780Z,94936.19
2022-08-18T06:11:08.275Z,94928.94
2022-08-18T06:13:52.220Z,94931.38
2022-08-18T06:16:36.572Z,94932.75
2022-08-18T06:19:43.066Z,94922.94
2022-08-18T06:22:17.759Z,94923.44
2022-08-18T06:24:58.011Z,94922.34
2022-08-18T06:27:43.209Z,94922.53
2022-08-18T06:30:20.354Z,94927.38
2022-08-18T06:33:05.549Z,94928.41
2022-08-18T06:35:55.070Z,94933.47
2022-08-18T06:38:38.824Z,94932.28
2022-08-18T06:41:40.508Z,94934.41
2022-08-18T06:44:30.515Z,94937.97
2022-08-18T06:47:04.369Z,94935.75
2022-08-18T06:49:46.852Z,94934.59
2022-08-18T06:52:33.967Z,94937.38
2022-08-18T06:55:05.865Z,94932.16
2022-08-18T06:57:36.913Z,94928.81
2022-08-18T07:00:17.450Z,94930.47
2022-08-18T07:03:07.129Z,94923.47
2022-08-18T07:05:37.065Z,94918.47
2022-08-18T07:08:37.200Z,94896.13
2022-08-18T07:11:25.864Z,94923.81
2022-08-18T07:14:14.975Z,94913.22
2022-08-18T07:16:59.525Z,94919.47
2022-08-18T07:19:30.621Z,94923.22
2022-08-18T07:22:18.780Z,94927.41
2022-08-18T07:24:52.886Z,94924.13
2022-08-18T07:27:21.892Z,94920.03
2022-08-18T07:30:15.696Z,94913.75
2022-08-18T07:33:12.655Z,94907.44
2022-08-18T07:35:49.554Z,94911.13
2022-08-18T07:38:41.074Z,94921.69
2022-08-18T07:41:35.695Z,94915.38
2022-08-18T07:44:25.478Z,94902.50
2022-08-18T07:46:59.705Z,94913.72
2022-08-18T07:49:30.389Z,94907.19
2022-08-18T07:52:04.798Z,94905.03
2022-08-18T07:54:50.935Z,94911.91
2022-08-18T07:57:43.787Z,94919.38
2022-08-18T08:00:18.744Z,94913.22
2022-08-18T08:03:24.146Z,94910.06
2022-08-18T08:06:07.739Z,94914.97
2022-08-18T08:08:34.624Z,94911.38
2022-08-18T08:11:17.026Z,94901.47
2022-08-18T08:13:57.512Z,94914.97
2022-08-18T08:17:09.997Z,94903.59
2022-08-18T08:20:00.906Z,94911.75
2022-08-18T08:22:54.287Z,94910.56
2022-08-18T08:25:52.896Z,94907.25
2022-08-18T08:28:28.662Z,94894.84
2022-08-18T08:31:36.235Z,94903.63
2022-08-18T08:34:26.728Z,94909.28
2022-08-18T08:37:01.458Z,94896.28
2022-08-18T08:39:58.013Z,94892.53
2022-08-18T08:42:34.446Z,94905.94
2022-08-18T08:45:21.447Z,94896.22
2022-08-18T08:48:09.917Z,94908.38
2022-08-18T08:50:44.859Z,94892.31
2022-08-18T08:53:17.847Z,94893.34
2022-08-18T08:55:50.114Z,94885.88
2022-08-18T08:58:30.624Z,94891.09
2022-08-18T09:00:58.806Z,94889.00
2022-08-18T09:03:34.747Z,94894.88
2022-08-18T09:06:31.184Z,94898.53
2022-08-18T09:09:42.641Z,94863.72
2022-08-18T09:12:34.679Z,94886.94
2022-08-18T09:15:22.497Z,94878.38
2022-08-18T09:17:54.346Z,94879.84
2022-08-18T09:20:40.436Z,94878.59
2022-08-18T09:23:18.261Z,94876.31
2022-08-18T09:25:55.459Z,94872.06
2022-08-18T09:28:28.281Z,94866.22
2022-08-18T09:31:08.894Z,94870.81
2022-08-18T09:33:40.564Z,94866.41
2022-08-18T09:36:40.886Z,94865.69
2022-08-18T09:39:57.875Z,94851.31
2022-08-18T09:42:48.362Z,94847.16
2022-08-18T09:45:34.275Z,94850.31
2022-08-18T09:48:28.300Z,94854.09
2022-08-18T09:51:17.513Z,94869.63
2022-08-18T09:53:47.929Z,94834.28
2022-08-18T09:56:19.652Z,94848.44
2022-08-18T09:59:00.889Z,94833.78
2022-08-18T10:01:31.936Z,94855.06
2022-08-18T10:04:14.614Z,94837.91
2022-08-18T10:06:48.301Z,94820.97
2022-08-18T10:09:36.778Z,94828.34
2022-08-18T10:12:28.911Z,94840.94
2022-08-18T10:15:14.549Z,94831.34
2022-08-18T10:18:15.355Z,94823.81
2022-08-18T10:20:49.869Z,94825.50
2022-08-18T10:24:02.790Z,94827.78
2022-08-18T10:26:40.877Z,94818.97
2022-08-18T10:29:24.058Z,94820.56
2022-08-18T10:31:57.662Z,94807.66
2022-08-18T10:34:52.406Z,94811.81
2022-08-18T10:37:31.004Z,94816.63
2022-08-18T10:40:22.568Z,94813.81
2022-08-18T10:46:25.113Z,94810.78
2022-08-18T10:49:04.435Z,94821.25
2022-08-18T10:52:00.495Z,94811.66
2022-08-18T10:54:56.844Z,94817.47
2022-08-18T10:57:37.567Z,94807.03
2022-08-18T11:00:15.532Z,94818.94
2022-08-18T11:06:06.668Z,94817.03
2022-08-18T11:08:48.379Z,94808.16
2022-08-18T11:11:32.987Z,94806.25
2022-08-18T11:14:42.514Z,94807.78
2022-08-18T11:17:33.918Z,94803.16
2022-08-18T11:20:05.188Z,94801.63
2022-08-18T11:22:34.516Z,94803.94
2022-08-18T11:25:17.293Z,94803.97
2022-08-18T11:27:48.461Z,94803.94
2022-08-18T11:30:17.789Z,94797.31
2022-08-18T11:32:52.157Z,94811.53
2022-08-18T11:35:27.549Z,94802.22
2022-08-18T11:38:01.470Z,94799.13
2022-08-18T11:43:41.420Z,94802.47
2022-08-18T11:46:29.356Z,94789.06
2022-08-18T11:49:00.901Z,94812.34
2022-08-18T11:51:32.498Z,94800.94
2022-08-18T11:54:18.206Z,94789.22
2022-08-18T11:56:46.068Z,94784.50
2022-08-18T11:59:53.957Z,94792.22
2022-08-18T12:02:23.035Z,94792.09
2022-08-18T12:04:53.972Z,94791.25
2022-08-18T12:07:57.542Z,94792.25
2022-08-18T12:10:34.029Z,94786.88
2022-08-18T12:13:01.323Z,94783.28
2022-08-18T12:15:46.803Z,94772.94
2022-08-18T12:18:26.287Z,94768.09
2022-08-18T12:20:58.561Z,94773.06
2022-08-18T12:23:25.796Z,94761.31
2022-08-18T12:25:52.739Z,94771.06
2022-08-18T12:28:22.828Z,94774.34
2022-08-18T12:30:56.144Z,94764.59
2022-08-18T12:33:25.620Z,94759.25
2022-08-18T12:36:04.902Z,94768.38
2022-08-18T12:38:36.378Z,94769.28
2022-08-18T12:41:05.082Z,94754.34
2022-08-18T12:43:32.723Z,94746.44
2022-08-18T12:46:01.039Z,94753.09
2022-08-18T12:48:30.418Z,94749.81
2022-08-18T12:50:59.644Z,94750.28
2022-08-18T12:53:30.653Z,94756.09
2022-08-18T12:56:25.852Z,94755.16
2022-08-18T12:58:53.563Z,94758.53
2022-08-18T13:01:23.370Z,94750.59
2022-08-18T13:06:59.485Z,94740.69
2022-08-18T13:09:47.642Z,94746.00
2022-08-18T13:12:18.618Z,94746.25
2022-08-18T13:14:47.532Z,94749.91
2022-08-18T13:17:33.333Z,94741.03
2022-08-18T13:20:13.604Z,94740.78
2022-08-18T13:22:41.059Z,94716.28
2022-08-18T13:25:10.684Z,94737.06
2022-08-18T13:27:38.437Z,94733.44
2022-08-18T13:30:29.252Z,94712.91
2022-08-18T13:33:02.502Z,94715.84
2022-08-18T13:35:44.647Z,94726.66
2022-08-18T13:38:15.784Z,94721.28
2022-08-18T13:40:50.918Z,94719.97
2022-08-18T13:43:23.384Z,94712.69
2022-08-18T13:45:53.369Z,94716.25
2022-08-18T13:48:24.140Z,94712.78
2022-08-18T13:50:56.025Z,94712.41
2022-08-18T13:53:27.320Z,94713.91
2022-08-18T13:55:58.493Z,94675.88
2022-08-18T13:58:27.118Z,94718.31
2022-08-18T14:01:22.523Z,94722.44
2022-08-18T14:03:48.276Z,94708.84
2022-08-18T14:06:22.481Z,94710.00
2022-08-18T14:08:51.655Z,94701.91
2022-08-18T14:11:19.114Z,94709.69
2022-08-18T14:13:47.163Z,94708.28
2022-08-18T14:16:18.919Z,94701.84
2022-08-18T14:19:09.372Z,94700.13
2022-08-18T14:22:02.150Z,94702.78
2022-08-18T14:24:49.325Z,94707.44
2022-08-18T14:27:18.422Z,94705.41
2022-08-18T14:29:48.978Z,94699.97
2022-08-18T14:32:29.315Z,94706.28
2022-08-18T14:35:33.360Z,94684.56
2022-08-18T14:37:49.045Z,94696.94
2022-08-18T14:40:19.968Z,94702.56
2022-08-18T14:42:54.480Z,94700.50
2022-08-18T14:45:31.728Z,94693.09
2022-08-18T14:48:11.047Z,94687.81
2022-08-18T14:50:40.202Z,94690.78
2022-08-18T14:53:17.327Z,94692.25
2022-08-18T14:55:47.478Z,94695.91
2022-08-18T14:58:16.587Z,94704.84
2022-08-18T15:00:53.395Z,94700.28
2022-08-18T15:03:28.206Z,94699.63
2022-08-18T15:06:00.220Z,94697.38
2022-08-18T15:08:28.247Z,94698.94
2022-08-18T15:10:55.741Z,94692.31
2022-08-18T15:13:26.455Z,94694.91
2022-08-18T15:15:55.949Z,94703.59
2022-08-18T15:18:29.988Z,94695.88
2022-08-18T15:21:19.614Z,94704.78
2022-08-18T15:24:20.698Z,94707.19
2022-08-18T15:26:51.463Z,94712.31
2022-08-18T15:29:19.139Z,94699.81
2022-08-18T15:31:51.022Z,94708.44
2022-08-18T15:34:20.801Z,94708.84
2022-08-18T15:36:49.492Z,94699.31
2022-08-18T15:39:16.984Z,94695.19
2022-08-18T15:41:46.649Z,94707.16
2022-08-18T15:44:18.420Z,94713.53
2022-08-18T15:46:51.292Z,94716.88
2022-08-18T15:49:21.846Z,94711.72
2022-08-18T15:51:50.219Z,94704.56
2022-08-18T15:54:19.794Z,94696.81
2022-08-18T15:56:57.611Z,94705.31
2022-08-18T15:59:27.019Z,94694.31
2022-08-18T16:02:02.200Z,94702.34
2022-08-18T16:04:28.997Z,94704.53
2022-08-18T16:06:56.294Z,94695.03
2022-08-18T16:09:23.439Z,94696.56
2022-08-18T16:11:50.245Z,94696.97
2022-08-18T16:14:17.014Z,94703.50
2022-08-18T16:16:43.904Z,94701.69
2022-08-18T16:19:10.852Z,94701.41
2022-08-18T16:21:40.659Z,94705.66
2022-08-18T16:24:08.283Z,94709.84
2022-08-18T16:26:35.290Z,94711.66
2022-08-18T16:29:02.227Z,94714.69
2022-08-18T16:31:29.494Z,94721.16
2022-08-18T16:33:57.959Z,94704.16
2022-08-18T16:36:25.799Z,94717.16
2022-08-18T16:38:54.196Z,94721.41
2022-08-18T16:41:26.358Z,94721.91
2022-08-18T16:43:53.744Z,94724.38
2022-08-18T16:46:25.297Z,94723.38
2022-08-18T16:48:53.652Z,94720.56
2022-08-18T16:51:24.436Z,94728.00
2022-08-18T16:53:53.080Z,94723.34
2022-08-18T16:56:25.079Z,94729.66
2022-08-18T17:02:23.971Z,94729.81
2022-08-18T17:04:52.061Z,94724.34
2022-08-18T17:07:18.978Z,94728.09
2022-08-18T17:09:45.951Z,94727.97
2022-08-18T17:12:12.836Z,94729.38
2022-08-18T17:14:39.781Z,94728.81
2022-08-18T17:17:07.691Z,94735.88
2022-08-18T17:19:35.458Z,94735.72
2022-08-18T17:22:04.113Z,94734.69
2022-08-18T17:24:32.756Z,94729.09
2022-08-18T17:27:26.115Z,94732.81
2022-08-18T17:30:05.033Z,94732.53
2022-08-18T17:32:49.296Z,94729.06
2022-08-18T17:35:26.955Z,94736.38
2022-08-18T17:38:19.409Z,94717.75
2022-08-18T17:40:49.967Z,94734.09
2022-08-18T17:43:22.846Z,94734.50
2022-08-18T17:46:14.966Z,94741.13
2022-08-18T17:48:47.813Z,94723.69
2022-08-18T17:51:34.457Z,94747.63
2022-08-18T17:54:25.422Z,94746.09
2022-08-18T17:57:05.476Z,94758.69
2022-08-18T17:59:46.506Z,94741.06
2022-08-18T18:02:29.652Z,94773.03
2022-08-18T18:05:03.104Z,94780.84
2022-08-18T18:07:53.373Z,94785.31
2022-08-18T18:11:02.379Z,94787.88
2022-08-18T18:13:32.565Z,94785.66
2022-08-18T18:16:18.703Z,94793.47
2022-08-18T18:18:46.062Z,94798.13
2022-08-18T18:21:15.918Z,94793.94
2022-08-18T18:23:46.995Z,94796.66
2022-08-18T18:26:29.675Z,94800.94
2022-08-18T18:29:37.751Z,94797.56
2022-08-18T18:32:05.809Z,94796.91
2022-08-18T18:34:44.554Z,94773.78
2022-08-18T18:37:29.677Z,94802.28
2022-08-18T18:39:59.157Z,94799.84
2022-08-18T18:42:30.510Z,94795.94
2022-08-18T18:45:00.527Z,94801.84
2022-08-18T18:47:29.945Z,94801.63
2022-08-18T18:50:20.983Z,94795.28
2022-08-18T18:53:13.785Z,94805.16
2022-08-18T18:55:54.081Z,94803.69
2022-08-18T18:58:32.333Z,94798.41
2022-08-18T19:01:03.631Z,94806.34
2022-08-18T19:03:41.761Z,94800.78
2022-08-18T19:06:26.243Z,94796.75
2022-08-18T19:09:19.433Z,94808.06
2022-08-18T19:12:03.531Z,94788.22
2022-08-18T19:15:34.266Z,94799.91
2022-08-18T19:19:35.904Z,94804.41
2022-08-18T19:22:06.223Z,94786.53
2022-08-18T19:24:45.461Z,94810.97
2022-08-18T19:27:46.122Z,94800.41
2022-08-18T19:30:15.913Z,94798.00
2022-08-18T19:32:51.203Z,94783.06
2022-08-18T19:35:41.246Z,94800.63
2022-08-18T19:38:22.998Z,94799.94
2022-08-18T19:41:00.501Z,94803.72
2022-08-18T19:43:52.694Z,94804.22
2022-08-18T19:46:36.274Z,94790.03
2022-08-18T19:49:13.803Z,94800.97
2022-08-18T19:51:42.396Z,94792.13
2022-08-18T19:54:46.175Z,94808.06
2022-08-18T19:57:46.098Z,94807.47
2022-08-18T20:00:56.918Z,94809.03
2022-08-18T20:03:42.978Z,94808.41
2022-08-18T20:06:34.404Z,94802.19
2022-08-18T20:09:20.633Z,94797.00
2022-08-18T20:12:17.645Z,94790.28
2022-08-18T20:15:02.692Z,94786.53
2022-08-18T20:17:30.009Z,94788.38
2022-08-18T20:19:59.643Z,94789.63
2022-08-18T20:22:43.364Z,94786.63
2022-08-18T20:25:17.600Z,94792.72
2022-08-18T20:27:50.315Z,94794.28
2022-08-18T20:30:20.044Z,94788.66
2022-08-18T20:33:17.762Z,94790.84
2022-08-18T20:36:19.863Z,94802.66
2022-08-18T20:38:53.684Z,94793.22
2022-08-18T20:41:32.183Z,94800.72
2022-08-18T20:44:04.969Z,94799.78
2022-08-18T20:46:49.787Z,94797.72
2022-08-18T20:49:29.285Z,94796.91
2022-08-18T20:52:06.491Z,94801.50
2022-08-18T20:54:57.554Z,94806.75
2022-08-18T20:57:34.866Z,94805.75
2022-08-18T21:00:16.121Z,94810.69
2022-08-18T21:02:56.126Z,94805.16
2022-08-18T21:05:35.759Z,94808.22
2022-08-18T21:08:03.161Z,94817.09
2022-08-18T21:10:31.801Z,94805.50
2022-08-18T21:13:01.853Z,94803.38
2022-08-18T21:15:35.467Z,94807.88
2022-08-18T21:18:05.084Z,94806.13
2022-08-18T21:20:33.641Z,94798.91
2022-08-18T21:23:08.303Z,94805.34
2022-08-18T21:25:35.836Z,94800.47
2022-08-18T21:28:06.441Z,94797.81
2022-08-18T21:30:33.393Z,94798.50
2022-08-18T21:33:00.203Z,94796.63
2022-08-18T21:35:33.644Z,94791.28
2022-08-18T21:38:05.650Z,94792.63
2022-08-18T21:40:39.442Z,94788.38
2022-08-18T21:43:08.642Z,94792.63
2022-08-18T21:45:50.922Z,94776.81
2022-08-18T21:48:19.877Z,94785.16
2022-08-18T21:50:51.783Z,94780.44
2022-08-18T21:53:25.812Z,94784.19
2022-08-18T21:55:56.377Z,94791.66
2022-08-18T21:58:41.648Z,94786.94
2022-08-18T22:01:17.414Z,94793.59
2022-08-18T22:03:51.422Z,94799.81
2022-08-18T22:06:26.965Z,94792.47
2022-08-18T22:09:20.800Z,94797.97
2022-08-18T22:12:06.183Z,94797.00
2022-08-18T22:14:54.892Z,94796.25
2022-08-18T22:17:33.288Z,94780.63
2022-08-18T22:20:35.440Z,94789.72
2022-08-18T22:23:32.862Z,94792.97
2022-08-18T22:26:14.995Z,94799.44
2022-08-18T22:29:06.247Z,94801.88
2022-08-18T22:31:42.799Z,94798.91
2022-08-18T22:34:13.834Z,94800.88
2022-08-18T22:36:44.015Z,94801.38
2022-08-18T22:39:18.254Z,94785.88
2022-08-18T22:41:46.270Z,94787.81
2022-08-18T22:44:13.085Z,94796.03
2022-08-18T22:46:39.996Z,94793.66
2022-08-18T22:49:06.806Z,94788.03
2022-08-18T22:51:37.304Z,94798.75
2022-08-18T22:54:08.318Z,94792.69
2022-08-18T22:56:37.977Z,94797.56
2022-08-18T22:59:16.005Z,94793.56
2022-08-18T23:01:50.269Z,94792.16
2022-08-18T23:04:22.770Z,94786.09
2022-08-18T23:06:53.584Z,94771.16
2022-08-18T23:09:24.187Z,94781.59
2022-08-18T23:11:52.784Z,94774.16
2022-08-18T23:14:19.839Z,94786.31
2022-08-18T23:16:47.121Z,94770.25
2022-08-18T23:19:16.951Z,94779.88
2022-08-18T23:21:44.770Z,94774.59
2022-08-18T23:24:14.350Z,94774.38
2022-08-18T23:26:41.677Z,94764.53
2022-08-18T23:29:11.649Z,94773.59
2022-08-18T23:31:40.601Z,94768.31
2022-08-18T23:34:07.506Z,94741.63
2022-08-18T23:36:34.664Z,94757.91
2022-08-18T23:39:01.810Z,94752.63
2022-08-18T23:41:28.593Z,94760.53
2022-08-18T23:43:55.336Z,94747.47
2022-08-18T23:46:28.775Z,94745.94
2022-08-18T23:48:57.695Z,94743.78
2022-08-18T23:51:24.430Z,94749.06
2022-08-18T23:53:52.778Z,94748.06
2022-08-18T23:56:19.834Z,94752.31
2022-08-18T23:58:56.894Z,94750.78
